sensor_id;sensor_type;location;lat;lon;timestamp;P1;durP1;ratioP1;P2;durP2;ratioP2
55647;SDS011;45266;48.756;9.246;2023-11-19T00:02:43;4.37;;;3.00;;
55647;SDS011;45266;48.756;9.246;2023-11-19T00:07:46;5.17;;;3.43;;
55647;SDS011;45266;48.756;9.246;2023-11-19T00:12:48;2.80;;;2.23;;
55647;SDS011;45266;48.756;9.246;2023-11-19T00:17:51;3.83;;;2.50;;
55647;SDS011;45266;48.756;9.246;2023-11-19T00:22:56;6.13;;;3.20;;
55647;SDS011;45266;48.756;9.246;2023-11-19T00:27:59;15.30;;;3.20;;
55647;SDS011;45266;48.756;9.246;2023-11-19T00:33:01;4.60;;;3.40;;
55647;SDS011;45266;48.756;9.246;2023-11-19T00:38:04;3.33;;;3.00;;
55647;SDS011;45266;48.756;9.246;2023-11-19T00:43:07;4.20;;;2.47;;
55647;SDS011;45266;48.756;9.246;2023-11-19T00:48:10;4.23;;;2.97;;
55647;SDS011;45266;48.756;9.246;2023-11-19T00:53:13;3.80;;;3.20;;
55647;SDS011;45266;48.756;9.246;2023-11-19T00:58:16;3.63;;;2.90;;
55647;SDS011;45266;48.756;9.246;2023-11-19T01:03:20;3.43;;;2.93;;
55647;SDS011;45266;48.756;9.246;2023-11-19T01:08:22;3.70;;;2.87;;
55647;SDS011;45266;48.756;9.246;2023-11-19T01:13:26;4.73;;;2.93;;
55647;SDS011;45266;48.756;9.246;2023-11-19T01:18:28;3.87;;;2.57;;
55647;SDS011;45266;48.756;9.246;2023-11-19T01:23:29;4.80;;;4.30;;
55647;SDS011;45266;48.756;9.246;2023-11-19T01:28:32;3.07;;;2.83;;
55647;SDS011;45266;48.756;9.246;2023-11-19T01:33:37;3.67;;;2.30;;
55647;SDS011;45266;48.756;9.246;2023-11-19T01:38:39;3.20;;;2.90;;
55647;SDS011;45266;48.756;9.246;2023-11-19T01:43:41;3.50;;;2.50;;
55647;SDS011;45266;48.756;9.246;2023-11-19T01:48:44;4.97;;;2.77;;
55647;SDS011;45266;48.756;9.246;2023-11-19T01:53:47;4.80;;;3.37;;
55647;SDS011;45266;48.756;9.246;2023-11-19T01:58:50;2.73;;;2.23;;
55647;SDS011;45266;48.756;9.246;2023-11-19T02:03:53;3.10;;;2.40;;
55647;SDS011;45266;48.756;9.246;2023-11-19T02:08:55;3.97;;;2.40;;
55647;SDS011;45266;48.756;9.246;2023-11-19T02:13:57;3.53;;;2.67;;
55647;SDS011;45266;48.756;9.246;2023-11-19T02:18:59;2.40;;;2.20;;
55647;SDS011;45266;48.756;9.246;2023-11-19T02:24:02;3.07;;;2.60;;
55647;SDS011;45266;48.756;9.246;2023-11-19T02:29:10;3.00;;;2.10;;
55647;SDS011;45266;48.756;9.246;2023-11-19T02:34:13;3.73;;;2.53;;
55647;SDS011;45266;48.756;9.246;2023-11-19T02:39:15;6.40;;;3.20;;
55647;SDS011;45266;48.756;9.246;2023-11-19T02:44:22;2.67;;;2.47;;
55647;SDS011;45266;48.756;9.246;2023-11-19T02:49:24;3.67;;;2.57;;
55647;SDS011;45266;48.756;9.246;2023-11-19T02:54:27;5.00;;;2.80;;
55647;SDS011;45266;48.756;9.246;2023-11-19T02:59:29;9.57;;;3.23;;
55647;SDS011;45266;48.756;9.246;2023-11-19T03:04:40;3.53;;;2.43;;
55647;SDS011;45266;48.756;9.246;2023-11-19T03:09:44;2.90;;;2.10;;
55647;SDS011;45266;48.756;9.246;2023-11-19T03:14:46;9.20;;;2.93;;
55647;SDS011;45266;48.756;9.246;2023-11-19T03:19:49;2.43;;;1.73;;
55647;SDS011;45266;48.756;9.246;2023-11-19T03:24:51;6.83;;;2.10;;
55647;SDS011;45266;48.756;9.246;2023-11-19T03:29:53;3.97;;;1.87;;
55647;SDS011;45266;48.756;9.246;2023-11-19T03:34:55;2.60;;;2.20;;
55647;SDS011;45266;48.756;9.246;2023-11-19T03:39:57;2.30;;;1.70;;
55647;SDS011;45266;48.756;9.246;2023-11-19T03:45:03;2.50;;;2.10;;
55647;SDS011;45266;48.756;9.246;2023-11-19T03:50:06;3.40;;;2.43;;
55647;SDS011;45266;48.756;9.246;2023-11-19T03:55:11;2.37;;;2.10;;
55647;SDS011;45266;48.756;9.246;2023-11-19T04:00:14;3.90;;;2.90;;
55647;SDS011;45266;48.756;9.246;2023-11-19T04:05:16;3.97;;;1.97;;
55647;SDS011;45266;48.756;9.246;2023-11-19T04:10:20;2.77;;;1.90;;
55647;SDS011;45266;48.756;9.246;2023-11-19T04:15:24;1.90;;;1.80;;
55647;SDS011;45266;48.756;9.246;2023-11-19T04:20:27;2.87;;;2.00;;
55647;SDS011;45266;48.756;9.246;2023-11-19T04:25:29;2.73;;;2.27;;
55647;SDS011;45266;48.756;9.246;2023-11-19T04:30:31;3.80;;;2.03;;
55647;SDS011;45266;48.756;9.246;2023-11-19T04:35:33;10.50;;;4.40;;
55647;SDS011;45266;48.756;9.246;2023-11-19T04:40:35;1.90;;;1.70;;
55647;SDS011;45266;48.756;9.246;2023-11-19T04:45:37;2.77;;;1.33;;
55647;SDS011;45266;48.756;9.246;2023-11-19T04:50:40;1.00;;;0.80;;
55647;SDS011;45266;48.756;9.246;2023-11-19T04:55:42;0.80;;;0.60;;
55647;SDS011;45266;48.756;9.246;2023-11-19T05:00:44;0.40;;;0.40;;
55647;SDS011;45266;48.756;9.246;2023-11-19T05:05:46;0.70;;;0.70;;
55647;SDS011;45266;48.756;9.246;2023-11-19T05:10:48;3.37;;;0.90;;
55647;SDS011;45266;48.756;9.246;2023-11-19T05:15:50;1.10;;;0.70;;
55647;SDS011;45266;48.756;9.246;2023-11-19T05:20:52;0.60;;;0.40;;
55647;SDS011;45266;48.756;9.246;2023-11-19T05:25:54;2.00;;;0.40;;
55647;SDS011;45266;48.756;9.246;2023-11-19T05:30:56;1.93;;;0.40;;
55647;SDS011;45266;48.756;9.246;2023-11-19T05:35:59;0.60;;;0.37;;
55647;SDS011;45266;48.756;9.246;2023-11-19T05:41:02;0.90;;;0.70;;
55647;SDS011;45266;48.756;9.246;2023-11-19T05:46:04;0.40;;;0.30;;
55647;SDS011;45266;48.756;9.246;2023-11-19T05:51:20;0.40;;;0.30;;
55647;SDS011;45266;48.756;9.246;2023-11-19T05:56:22;3.07;;;0.40;;
55647;SDS011;45266;48.756;9.246;2023-11-19T06:01:24;0.50;;;0.40;;
55647;SDS011;45266;48.756;9.246;2023-11-19T06:06:28;1.10;;;0.40;;
55647;SDS011;45266;48.756;9.246;2023-11-19T06:11:30;0.50;;;0.40;;
55647;SDS011;45266;48.756;9.246;2023-11-19T06:16:32;0.70;;;0.40;;
55647;SDS011;45266;48.756;9.246;2023-11-19T06:21:34;0.50;;;0.40;;
55647;SDS011;45266;48.756;9.246;2023-11-19T06:26:38;0.40;;;0.40;;
55647;SDS011;45266;48.756;9.246;2023-11-19T06:31:40;0.83;;;0.67;;
55647;SDS011;45266;48.756;9.246;2023-11-19T06:36:53;1.47;;;0.73;;
55647;SDS011;45266;48.756;9.246;2023-11-19T06:41:57;0.63;;;0.60;;
55647;SDS011;45266;48.756;9.246;2023-11-19T06:47:04;0.57;;;0.40;;
55647;SDS011;45266;48.756;9.246;2023-11-19T06:52:11;0.40;;;0.30;;
55647;SDS011;45266;48.756;9.246;2023-11-19T06:57:15;4.57;;;0.40;;
55647;SDS011;45266;48.756;9.246;2023-11-19T07:02:20;5.07;;;0.50;;
55647;SDS011;45266;48.756;9.246;2023-11-19T07:07:30;0.63;;;0.40;;
55647;SDS011;45266;48.756;9.246;2023-11-19T07:12:43;0.50;;;0.40;;
55647;SDS011;45266;48.756;9.246;2023-11-19T07:17:51;0.57;;;0.40;;
55647;SDS011;45266;48.756;9.246;2023-11-19T07:23:02;0.60;;;0.57;;
55647;SDS011;45266;48.756;9.246;2023-11-19T07:28:11;0.50;;;0.40;;
55647;SDS011;45266;48.756;9.246;2023-11-19T07:33:18;3.10;;;0.60;;
55647;SDS011;45266;48.756;9.246;2023-11-19T07:38:25;0.90;;;0.60;;
55647;SDS011;45266;48.756;9.246;2023-11-19T07:43:33;2.73;;;2.03;;
55647;SDS011;45266;48.756;9.246;2023-11-19T07:48:41;2.10;;;1.00;;
55647;SDS011;45266;48.756;9.246;2023-11-19T07:53:59;3.03;;;0.60;;
55647;SDS011;45266;48.756;9.246;2023-11-19T07:59:07;0.60;;;0.50;;
55647;SDS011;45266;48.756;9.246;2023-11-19T08:04:19;2.73;;;0.70;;
55647;SDS011;45266;48.756;9.246;2023-11-19T08:09:26;0.70;;;0.70;;
55647;SDS011;45266;48.756;9.246;2023-11-19T08:14:42;2.13;;;0.40;;
55647;SDS011;45266;48.756;9.246;2023-11-19T08:19:50;0.40;;;0.40;;
55647;SDS011;45266;48.756;9.246;2023-11-19T08:25:00;0.53;;;0.40;;
55647;SDS011;45266;48.756;9.246;2023-11-19T08:30:11;0.90;;;0.60;;
55647;SDS011;45266;48.756;9.246;2023-11-19T08:35:17;3.07;;;0.70;;
55647;SDS011;45266;48.756;9.246;2023-11-19T08:40:25;0.60;;;0.60;;
55647;SDS011;45266;48.756;9.246;2023-11-19T08:45:39;2.73;;;0.93;;
55647;SDS011;45266;48.756;9.246;2023-11-19T08:50:50;7.60;;;1.67;;
55647;SDS011;45266;48.756;9.246;2023-11-19T08:55:58;1.57;;;1.27;;
55647;SDS011;45266;48.756;9.246;2023-11-19T09:01:10;2.97;;;0.80;;
55647;SDS011;45266;48.756;9.246;2023-11-19T09:06:17;3.03;;;1.03;;
55647;SDS011;45266;48.756;9.246;2023-11-19T09:11:25;1.77;;;0.80;;
55647;SDS011;45266;48.756;9.246;2023-11-19T09:16:32;3.47;;;0.87;;
55647;SDS011;45266;48.756;9.246;2023-11-19T09:21:41;1.33;;;0.80;;
55647;SDS011;45266;48.756;9.246;2023-11-19T09:26:48;0.70;;;0.50;;
55647;SDS011;45266;48.756;9.246;2023-11-19T09:31:54;1.03;;;0.70;;
55647;SDS011;45266;48.756;9.246;2023-11-19T09:37:04;1.63;;;0.97;;
55647;SDS011;45266;48.756;9.246;2023-11-19T09:42:15;3.20;;;0.93;;
55647;SDS011;45266;48.756;9.246;2023-11-19T09:47:26;1.43;;;1.17;;
55647;SDS011;45266;48.756;9.246;2023-11-19T09:52:42;0.67;;;0.67;;
55647;SDS011;45266;48.756;9.246;2023-11-19T09:57:50;0.90;;;0.50;;
55647;SDS011;45266;48.756;9.246;2023-11-19T10:02:59;0.80;;;0.60;;
55647;SDS011;45266;48.756;9.246;2023-11-19T10:08:13;6.23;;;1.43;;
55647;SDS011;45266;48.756;9.246;2023-11-19T10:13:27;1.47;;;0.90;;
55647;SDS011;45266;48.756;9.246;2023-11-19T10:18:42;0.83;;;0.53;;
55647;SDS011;45266;48.756;9.246;2023-11-19T10:23:53;0.90;;;0.60;;
55647;SDS011;45266;48.756;9.246;2023-11-19T10:29:04;2.87;;;0.60;;
55647;SDS011;45266;48.756;9.246;2023-11-19T10:34:24;0.80;;;0.40;;
55647;SDS011;45266;48.756;9.246;2023-11-19T10:45:00;0.60;;;0.40;;
55647;SDS011;45266;48.756;9.246;2023-11-19T10:50:13;0.97;;;0.53;;
55647;SDS011;45266;48.756;9.246;2023-11-19T10:55:28;0.70;;;0.40;;
55647;SDS011;45266;48.756;9.246;2023-11-19T11:00:47;1.90;;;0.70;;
55647;SDS011;45266;48.756;9.246;2023-11-19T11:06:06;0.50;;;0.50;;
55647;SDS011;45266;48.756;9.246;2023-11-19T11:11:17;0.70;;;0.40;;
55647;SDS011;45266;48.756;9.246;2023-11-19T11:16:28;0.60;;;0.50;;
55647;SDS011;45266;48.756;9.246;2023-11-19T11:21:42;0.63;;;0.47;;
55647;SDS011;45266;48.756;9.246;2023-11-19T11:32:41;0.50;;;0.40;;
55647;SDS011;45266;48.756;9.246;2023-11-19T11:38:13;0.70;;;0.50;;
55647;SDS011;45266;48.756;9.246;2023-11-19T11:48:57;2.10;;;0.67;;
55647;SDS011;45266;48.756;9.246;2023-11-19T12:04:55;1.23;;;0.50;;
55647;SDS011;45266;48.756;9.246;2023-11-19T12:10:06;4.90;;;0.97;;
55647;SDS011;45266;48.756;9.246;2023-11-19T12:15:11;0.50;;;0.40;;
55647;SDS011;45266;48.756;9.246;2023-11-19T12:20:25;1.60;;;0.60;;
55647;SDS011;45266;48.756;9.246;2023-11-19T12:25:36;0.83;;;0.40;;
55647;SDS011;45266;48.756;9.246;2023-11-19T12:30:44;0.40;;;0.40;;
55647;SDS011;45266;48.756;9.246;2023-11-19T12:35:56;1.23;;;0.40;;
55647;SDS011;45266;48.756;9.246;2023-11-19T12:41:08;1.23;;;0.60;;
55647;SDS011;45266;48.756;9.246;2023-11-19T12:46:22;0.70;;;0.40;;
55647;SDS011;45266;48.756;9.246;2023-11-19T12:51:32;1.53;;;0.60;;
55647;SDS011;45266;48.756;9.246;2023-11-19T12:56:53;0.60;;;0.50;;
55647;SDS011;45266;48.756;9.246;2023-11-19T13:02:03;4.43;;;0.70;;
55647;SDS011;45266;48.756;9.246;2023-11-19T13:07:20;1.00;;;0.60;;
55647;SDS011;45266;48.756;9.246;2023-11-19T13:12:30;0.67;;;0.50;;
55647;SDS011;45266;48.756;9.246;2023-11-19T13:17:40;1.00;;;0.67;;
55647;SDS011;45266;48.756;9.246;2023-11-19T13:22:59;1.33;;;0.50;;
55647;SDS011;45266;48.756;9.246;2023-11-19T13:28:16;0.70;;;0.47;;
55647;SDS011;45266;48.756;9.246;2023-11-19T13:33:27;4.10;;;1.20;;
55647;SDS011;45266;48.756;9.246;2023-11-19T13:38:37;0.87;;;0.47;;
55647;SDS011;45266;48.756;9.246;2023-11-19T13:43:48;4.40;;;0.77;;
55647;SDS011;45266;48.756;9.246;2023-11-19T13:48:56;0.77;;;0.50;;
55647;SDS011;45266;48.756;9.246;2023-11-19T13:54:03;6.83;;;0.93;;
55647;SDS011;45266;48.756;9.246;2023-11-19T13:59:12;2.47;;;0.57;;
55647;SDS011;45266;48.756;9.246;2023-11-19T14:04:23;1.20;;;1.00;;
55647;SDS011;45266;48.756;9.246;2023-11-19T14:09:30;1.60;;;0.90;;
55647;SDS011;45266;48.756;9.246;2023-11-19T14:14:40;0.90;;;0.53;;
55647;SDS011;45266;48.756;9.246;2023-11-19T14:19:54;1.67;;;1.00;;
55647;SDS011;45266;48.756;9.246;2023-11-19T14:25:04;3.80;;;1.30;;
55647;SDS011;45266;48.756;9.246;2023-11-19T14:30:21;2.23;;;0.90;;
55647;SDS011;45266;48.756;9.246;2023-11-19T14:35:31;0.80;;;0.77;;
55647;SDS011;45266;48.756;9.246;2023-11-19T14:40:39;0.57;;;0.57;;
55647;SDS011;45266;48.756;9.246;2023-11-19T14:45:48;5.17;;;1.43;;
55647;SDS011;45266;48.756;9.246;2023-11-19T14:50:57;6.43;;;4.33;;
55647;SDS011;45266;48.756;9.246;2023-11-19T14:56:05;3.43;;;2.53;;
55647;SDS011;45266;48.756;9.246;2023-11-19T15:01:17;2.70;;;1.20;;
55647;SDS011;45266;48.756;9.246;2023-11-19T15:06:32;5.00;;;1.27;;
55647;SDS011;45266;48.756;9.246;2023-11-19T15:11:45;5.97;;;1.47;;
55647;SDS011;45266;48.756;9.246;2023-11-19T15:16:53;1.60;;;1.50;;
55647;SDS011;45266;48.756;9.246;2023-11-19T15:22:23;1.83;;;1.30;;
55647;SDS011;45266;48.756;9.246;2023-11-19T15:27:25;1.07;;;0.60;;
55647;SDS011;45266;48.756;9.246;2023-11-19T15:32:27;0.90;;;0.90;;
55647;SDS011;45266;48.756;9.246;2023-11-19T15:37:34;6.43;;;2.97;;
55647;SDS011;45266;48.756;9.246;2023-11-19T15:42:37;5.13;;;3.70;;
55647;SDS011;45266;48.756;9.246;2023-11-19T15:47:41;7.67;;;5.60;;
55647;SDS011;45266;48.756;9.246;2023-11-19T15:52:43;4.17;;;2.80;;
55647;SDS011;45266;48.756;9.246;2023-11-19T15:57:46;3.33;;;2.97;;
55647;SDS011;45266;48.756;9.246;2023-11-19T16:02:49;1.77;;;1.67;;
55647;SDS011;45266;48.756;9.246;2023-11-19T16:07:54;0.70;;;0.60;;
55647;SDS011;45266;48.756;9.246;2023-11-19T16:12:56;0.70;;;0.60;;
55647;SDS011;45266;48.756;9.246;2023-11-19T16:17:58;6.30;;;3.67;;
55647;SDS011;45266;48.756;9.246;2023-11-19T16:23:00;10.40;;;6.43;;
55647;SDS011;45266;48.756;9.246;2023-11-19T16:28:05;22.63;;;12.03;;
55647;SDS011;45266;48.756;9.246;2023-11-19T16:33:10;22.63;;;9.33;;
55647;SDS011;45266;48.756;9.246;2023-11-19T16:38:25;14.20;;;6.93;;
55647;SDS011;45266;48.756;9.246;2023-11-19T16:43:28;15.00;;;7.80;;
55647;SDS011;45266;48.756;9.246;2023-11-19T16:48:30;18.40;;;8.77;;
55647;SDS011;45266;48.756;9.246;2023-11-19T16:53:32;19.17;;;9.47;;
55647;SDS011;45266;48.756;9.246;2023-11-19T16:58:34;8.47;;;5.40;;
55647;SDS011;45266;48.756;9.246;2023-11-19T17:03:37;10.90;;;5.47;;
55647;SDS011;45266;48.756;9.246;2023-11-19T17:08:39;5.97;;;3.17;;
55647;SDS011;45266;48.756;9.246;2023-11-19T17:13:43;8.70;;;5.27;;
55647;SDS011;45266;48.756;9.246;2023-11-19T17:18:45;10.50;;;5.13;;
55647;SDS011;45266;48.756;9.246;2023-11-19T17:23:47;4.27;;;3.20;;
55647;SDS011;45266;48.756;9.246;2023-11-19T17:28:49;6.00;;;2.63;;
55647;SDS011;45266;48.756;9.246;2023-11-19T17:33:52;2.53;;;2.17;;
55647;SDS011;45266;48.756;9.246;2023-11-19T17:38:58;6.73;;;3.70;;
55647;SDS011;45266;48.756;9.246;2023-11-19T17:44:05;3.63;;;2.60;;
55647;SDS011;45266;48.756;9.246;2023-11-19T17:49:08;3.07;;;2.30;;
55647;SDS011;45266;48.756;9.246;2023-11-19T17:54:12;5.33;;;2.70;;
55647;SDS011;45266;48.756;9.246;2023-11-19T17:59:14;1.80;;;1.70;;
55647;SDS011;45266;48.756;9.246;2023-11-19T18:04:17;6.50;;;3.93;;
55647;SDS011;45266;48.756;9.246;2023-11-19T18:09:19;3.60;;;2.80;;
55647;SDS011;45266;48.756;9.246;2023-11-19T18:14:21;5.63;;;3.10;;
55647;SDS011;45266;48.756;9.246;2023-11-19T18:19:30;3.10;;;2.50;;
55647;SDS011;45266;48.756;9.246;2023-11-19T18:24:39;6.43;;;3.10;;
55647;SDS011;45266;48.756;9.246;2023-11-19T18:29:41;4.53;;;2.63;;
55647;SDS011;45266;48.756;9.246;2023-11-19T18:34:45;4.17;;;2.67;;
55647;SDS011;45266;48.756;9.246;2023-11-19T18:39:47;7.87;;;3.03;;
55647;SDS011;45266;48.756;9.246;2023-11-19T18:44:49;4.67;;;3.20;;
55647;SDS011;45266;48.756;9.246;2023-11-19T18:49:51;8.70;;;4.20;;
55647;SDS011;45266;48.756;9.246;2023-11-19T18:54:56;5.17;;;3.73;;
55647;SDS011;45266;48.756;9.246;2023-11-19T18:59:58;5.27;;;2.97;;
55647;SDS011;45266;48.756;9.246;2023-11-19T19:05:00;5.67;;;3.50;;
55647;SDS011;45266;48.756;9.246;2023-11-19T19:10:03;5.87;;;4.27;;
55647;SDS011;45266;48.756;9.246;2023-11-19T19:15:05;5.03;;;3.80;;
55647;SDS011;45266;48.756;9.246;2023-11-19T19:20:15;8.50;;;5.17;;
55647;SDS011;45266;48.756;9.246;2023-11-19T19:25:17;10.03;;;5.40;;
55647;SDS011;45266;48.756;9.246;2023-11-19T19:30:19;6.73;;;5.03;;
55647;SDS011;45266;48.756;9.246;2023-11-19T19:35:22;7.30;;;5.70;;
55647;SDS011;45266;48.756;9.246;2023-11-19T19:40:32;10.73;;;5.07;;
55647;SDS011;45266;48.756;9.246;2023-11-19T19:45:35;6.27;;;4.20;;
55647;SDS011;45266;48.756;9.246;2023-11-19T19:50:37;6.37;;;3.70;;
55647;SDS011;45266;48.756;9.246;2023-11-19T19:55:39;5.43;;;3.80;;
55647;SDS011;45266;48.756;9.246;2023-11-19T20:00:42;10.27;;;4.10;;
55647;SDS011;45266;48.756;9.246;2023-11-19T20:05:44;7.53;;;4.00;;
55647;SDS011;45266;48.756;9.246;2023-11-19T20:10:46;7.17;;;3.87;;
55647;SDS011;45266;48.756;9.246;2023-11-19T20:15:49;9.97;;;6.03;;
55647;SDS011;45266;48.756;9.246;2023-11-19T20:20:54;4.50;;;2.30;;
55647;SDS011;45266;48.756;9.246;2023-11-19T20:25:58;4.67;;;2.40;;
55647;SDS011;45266;48.756;9.246;2023-11-19T20:31:04;7.00;;;2.37;;
55647;SDS011;45266;48.756;9.246;2023-11-19T20:36:07;5.43;;;2.37;;
55647;SDS011;45266;48.756;9.246;2023-11-19T20:41:17;2.80;;;1.70;;
55647;SDS011;45266;48.756;9.246;2023-11-19T20:46:20;5.23;;;1.40;;
55647;SDS011;45266;48.756;9.246;2023-11-19T20:51:23;6.60;;;1.37;;
55647;SDS011;45266;48.756;9.246;2023-11-19T20:56:32;4.00;;;1.57;;
55647;SDS011;45266;48.756;9.246;2023-11-19T21:01:35;3.27;;;1.80;;
55647;SDS011;45266;48.756;9.246;2023-11-19T21:06:41;5.07;;;1.77;;
55647;SDS011;45266;48.756;9.246;2023-11-19T21:11:52;4.77;;;1.80;;
55647;SDS011;45266;48.756;9.246;2023-11-19T21:17:06;2.50;;;1.27;;
55647;SDS011;45266;48.756;9.246;2023-11-19T21:22:09;3.17;;;1.73;;
55647;SDS011;45266;48.756;9.246;2023-11-19T21:27:12;3.40;;;1.77;;
55647;SDS011;45266;48.756;9.246;2023-11-19T21:32:14;3.77;;;2.33;;
55647;SDS011;45266;48.756;9.246;2023-11-19T21:37:17;4.17;;;1.87;;
55647;SDS011;45266;48.756;9.246;2023-11-19T21:42:20;4.87;;;1.33;;
55647;SDS011;45266;48.756;9.246;2023-11-19T21:47:23;2.27;;;1.50;;
55647;SDS011;45266;48.756;9.246;2023-11-19T21:52:28;5.20;;;1.70;;
55647;SDS011;45266;48.756;9.246;2023-11-19T21:57:30;14.50;;;2.10;;
55647;SDS011;45266;48.756;9.246;2023-11-19T22:02:32;4.97;;;1.47;;
55647;SDS011;45266;48.756;9.246;2023-11-19T22:07:36;2.30;;;1.67;;
55647;SDS011;45266;48.756;9.246;2023-11-19T22:12:42;2.43;;;1.07;;
55647;SDS011;45266;48.756;9.246;2023-11-19T22:17:45;6.00;;;1.83;;
55647;SDS011;45266;48.756;9.246;2023-11-19T22:22:48;6.57;;;1.30;;
55647;SDS011;45266;48.756;9.246;2023-11-19T22:28:00;2.40;;;1.60;;
55647;SDS011;45266;48.756;9.246;2023-11-19T22:33:03;4.67;;;1.37;;
55647;SDS011;45266;48.756;9.246;2023-11-19T22:38:08;2.50;;;1.03;;
55647;SDS011;45266;48.756;9.246;2023-11-19T22:43:11;5.13;;;0.90;;
55647;SDS011;45266;48.756;9.246;2023-11-19T22:48:13;3.03;;;1.20;;
55647;SDS011;45266;48.756;9.246;2023-11-19T22:53:17;2.93;;;1.07;;
55647;SDS011;45266;48.756;9.246;2023-11-19T22:58:19;5.43;;;2.03;;
55647;SDS011;45266;48.756;9.246;2023-11-19T23:03:22;8.90;;;2.13;;
55647;SDS011;45266;48.756;9.246;2023-11-19T23:08:24;8.27;;;1.70;;
55647;SDS011;45266;48.756;9.246;2023-11-19T23:13:26;2.03;;;1.43;;
55647;SDS011;45266;48.756;9.246;2023-11-19T23:18:28;5.53;;;1.47;;
55647;SDS011;45266;48.756;9.246;2023-11-19T23:23:30;1.67;;;1.13;;
55647;SDS011;45266;48.756;9.246;2023-11-19T23:28:32;12.40;;;2.27;;
55647;SDS011;45266;48.756;9.246;2023-11-19T23:33:33;11.93;;;1.80;;
55647;SDS011;45266;48.756;9.246;2023-11-19T23:38:35;2.23;;;1.20;;
55647;SDS011;45266;48.756;9.246;2023-11-19T23:43:38;4.80;;;1.50;;
55647;SDS011;45266;48.756;9.246;2023-11-19T23:48:40;5.63;;;2.27;;
55647;SDS011;45266;48.756;9.246;2023-11-19T23:54:04;10.57;;;2.20;;
55647;SDS011;45266;48.756;9.246;2023-11-19T23:59:08;3.07;;;2.07;;
